Time;durP1;ratioP1;P1;durP2;ratioP2;P2;SDS_P1;SDS_P2;PMS_P1;PMS_P2;Temp;Humidity;BMP_temperature;BMP_pressure;BME280_temperature;BME280_humidity;BME280_pressure;Samples;Min_cycle;Max_cycle;Signal;HPM_P1;HPM_P2
2021/12/20 00:01:46;;;;;;;29.67;15.18;;;;;;;;;;4952168;28;20486;-67
2021/12/20 00:04:13;;;;;;;28.00;15.80;;;;;;;;;;4953038;28;20051;-67
2021/12/20 00:06:39;;;;;;;30.45;15.88;;;;;;;;;;4952652;28;20473;-68
2021/12/20 00:09:06;;;;;;;32.63;16.08;;;;;;;;;;4953256;28;20107;-68
2021/12/20 00:11:33;;;;;;;30.23;15.63;;;;;;;;;;4952130;29;20047;-68
2021/12/20 00:13:59;;;;;;;30.17;16.33;;;;;;;;;;4953190;28;20106;-68
2021/12/20 00:16:26;;;;;;;31.75;15.75;;;;;;;;;;4948760;28;20051;-67
2021/12/20 00:18:52;;;;;;;32.53;16.33;;;;;;;;;;4901486;29;20107;-67
2021/12/20 00:21:19;;;;;;;31.27;15.73;;;;;;;;;;4934182;29;20051;-71
2021/12/20 00:23:46;;;;;;;35.05;15.73;;;;;;;;;;4933974;29;20056;-68
2021/12/20 00:26:12;;;;;;;28.90;15.02;;;;;;;;;;4932744;29;20052;-68
2021/12/20 00:28:39;;;;;;;31.17;16.25;;;;;;;;;;4933705;29;20111;-67
2021/12/20 00:31:05;;;;;;;30.77;15.73;;;;;;;;;;4932629;29;20048;-68
2021/12/20 00:33:35;;;;;;;32.47;15.32;;;;;;;;;;4933741;29;20059;-67
2021/12/20 00:36:07;;;;;;;27.70;16.17;;;;;;;;;;4936112;29;20048;-68
2021/12/20 00:41:19;;;;;;;30.48;15.50;;;;;;;;;;4922930;29;20052;-68
2021/12/20 00:43:46;;;;;;;29.92;16.30;;;;;;;;;;4951817;28;20110;-68
2021/12/20 00:46:13;;;;;;;30.00;15.13;;;;;;;;;;4935769;29;20048;-67
2021/12/20 00:48:39;;;;;;;30.75;15.38;;;;;;;;;;4920289;29;20491;-67
2021/12/20 00:51:06;;;;;;;31.60;16.00;;;;;;;;;;4937049;29;20126;-67
2021/12/20 00:53:32;;;;;;;34.22;17.10;;;;;;;;;;4936333;29;20083;-67
2021/12/20 00:55:59;;;;;;;32.22;17.20;;;;;;;;;;4936917;29;20110;-68
2021/12/20 00:58:27;;;;;;;32.35;16.58;;;;;;;;;;4936389;29;20530;-67
2021/12/20 01:00:58;;;;;;;33.53;16.48;;;;;;;;;;4935673;29;20060;-67
2021/12/20 01:03:26;;;;;;;32.58;15.90;;;;;;;;;;4935580;29;20047;-67
2021/12/20 01:05:53;;;;;;;36.72;16.83;;;;;;;;;;4919814;29;20510;-67
2021/12/20 01:08:21;;;;;;;33.28;16.15;;;;;;;;;;4935395;29;20565;-68
2021/12/20 01:10:51;;;;;;;31.85;16.23;;;;;;;;;;4939370;29;20055;-67
2021/12/20 01:13:22;;;;;;;32.15;16.88;;;;;;;;;;4955777;28;20055;-67
2021/12/20 01:15:51;;;;;;;36.00;17.05;;;;;;;;;;4955835;28;20055;-68
2021/12/20 01:18:20;;;;;;;27.77;14.55;;;;;;;;;;4954713;28;20462;-67
2021/12/20 01:20:47;;;;;;;35.05;17.08;;;;;;;;;;4954688;28;20059;-68
2021/12/20 01:23:14;;;;;;;35.45;17.02;;;;;;;;;;4954291;28;20051;-67
2021/12/20 01:25:42;;;;;;;33.08;16.63;;;;;;;;;;4955440;28;20047;-67
2021/12/20 01:28:09;;;;;;;38.40;16.73;;;;;;;;;;4955406;28;20062;-67
2021/12/20 01:30:37;;;;;;;30.60;16.02;;;;;;;;;;4954254;29;20470;-66
2021/12/20 01:33:07;;;;;;;33.42;17.38;;;;;;;;;;4954174;28;20051;-67
2021/12/20 01:35:35;;;;;;;33.80;16.83;;;;;;;;;;4954330;29;20498;-66
2021/12/20 01:38:02;;;;;;;38.50;17.02;;;;;;;;;;4946406;28;20098;-66
2021/12/20 01:40:29;;;;;;;35.47;16.15;;;;;;;;;;4919191;29;20089;-67
2021/12/20 01:42:57;;;;;;;36.05;17.05;;;;;;;;;;4934842;29;20116;-66
2021/12/20 01:45:26;;;;;;;28.17;15.32;;;;;;;;;;4918680;29;20048;-67
2021/12/20 01:48:03;;;;;;;37.47;17.77;;;;;;;;;;4934434;29;20099;-67
2021/12/20 01:53:21;;;;;;;30.80;16.23;;;;;;;;;;4953937;28;20052;-67
2021/12/20 01:55:48;;;;;;;31.98;16.40;;;;;;;;;;4953945;28;20095;-67
2021/12/20 01:58:15;;;;;;;35.65;16.55;;;;;;;;;;4954518;28;20499;-67
2021/12/20 02:01:18;;;;;;;33.20;17.10;;;;;;;;;;4953897;28;20462;-67
2021/12/20 02:03:31;;;;;;;28.77;15.13;;;;;;;;;;4940330;29;20051;-66
2021/12/20 02:05:59;;;;;;;31.58;15.55;;;;;;;;;;4953615;28;20051;-66
2021/12/20 02:08:28;;;;;;;32.17;15.70;;;;;;;;;;4969201;28;20110;-67
2021/12/20 02:11:00;;;;;;;33.58;16.13;;;;;;;;;;4953714;29;20124;-67
2021/12/20 02:13:28;;;;;;;35.17;17.30;;;;;;;;;;4953118;28;20055;-67
2021/12/20 02:15:58;;;;;;;32.85;16.08;;;;;;;;;;4953752;29;20102;-67
2021/12/20 02:18:26;;;;;;;29.63;15.77;;;;;;;;;;4953147;28;20051;-67
2021/12/20 02:20:53;;;;;;;33.85;17.05;;;;;;;;;;4953417;28;20051;-67
2021/12/20 02:23:21;;;;;;;32.33;15.82;;;;;;;;;;4953021;28;20502;-66
2021/12/20 02:25:48;;;;;;;33.00;16.40;;;;;;;;;;4937467;29;20487;-66
2021/12/20 02:28:17;;;;;;;31.98;15.35;;;;;;;;;;4953102;28;20470;-67
2021/12/20 02:36:56;;;;;;;33.17;17.13;;;;;;;;;;4951091;28;20062;-67
2021/12/20 02:39:15;;;;;;;32.10;16.63;;;;;;;;;;4920817;29;20106;-66
2021/12/20 02:41:42;;;;;;;30.85;16.15;;;;;;;;;;4918643;29;20083;-66
2021/12/20 02:44:16;;;;;;;32.35;17.17;;;;;;;;;;4933590;29;20491;-66
2021/12/20 02:47:28;;;;;;;33.80;16.52;;;;;;;;;;4933960;29;20106;-66
2021/12/20 02:49:33;;;;;;;30.88;15.13;;;;;;;;;;4936842;29;20051;-67
2021/12/20 02:52:07;;;;;;;32.53;16.70;;;;;;;;;;4918137;29;20048;-67
2021/12/20 02:54:35;;;;;;;30.55;15.15;;;;;;;;;;4918055;29;20420;-67
2021/12/20 02:57:03;;;;;;;33.92;17.20;;;;;;;;;;4933406;29;20051;-67
2021/12/20 02:59:29;;;;;;;32.05;16.17;;;;;;;;;;4972431;23;20047;-69
2021/12/20 03:02:03;;;;;;;33.95;15.68;;;;;;;;;;4953924;28;20465;-69
2021/12/20 03:04:29;;;;;;;35.53;16.60;;;;;;;;;;4953668;28;20059;-69
2021/12/20 03:06:59;;;;;;;32.25;16.75;;;;;;;;;;4953855;28;20100;-69
2021/12/20 03:09:31;;;;;;;32.03;16.50;;;;;;;;;;4953571;28;20574;-68
2021/12/20 03:11:59;;;;;;;31.85;15.75;;;;;;;;;;4953733;28;20106;-69
2021/12/20 03:14:34;;;;;;;31.85;15.48;;;;;;;;;;4953657;28;20111;-69
2021/12/20 03:17:01;;;;;;;37.75;17.50;;;;;;;;;;4953953;28;20051;-68
2021/12/20 03:19:28;;;;;;;33.83;16.27;;;;;;;;;;4953760;28;20055;-68
2021/12/20 03:21:55;;;;;;;35.80;16.60;;;;;;;;;;4953521;28;20372;-69
2021/12/20 03:24:23;;;;;;;32.75;15.32;;;;;;;;;;4953369;28;20059;-68
2021/12/20 03:26:49;;;;;;;31.60;16.27;;;;;;;;;;4953721;28;20051;-68
2021/12/20 03:29:16;;;;;;;34.70;16.58;;;;;;;;;;4953473;28;20051;-69
2021/12/20 03:31:43;;;;;;;33.15;16.13;;;;;;;;;;4953621;28;20051;-69
2021/12/20 03:34:10;;;;;;;34.42;16.42;;;;;;;;;;4953418;28;20051;-68
2021/12/20 03:36:37;;;;;;;30.98;16.77;;;;;;;;;;4953439;28;20051;-69
2021/12/20 03:39:05;;;;;;;32.90;16.15;;;;;;;;;;4953528;28;20426;-69
2021/12/20 03:41:32;;;;;;;33.13;16.83;;;;;;;;;;4952146;29;20114;-69
2021/12/20 03:43:58;;;;;;;35.42;16.50;;;;;;;;;;4953232;28;20114;-69
2021/12/20 03:46:25;;;;;;;37.72;18.05;;;;;;;;;;4953144;29;20047;-69
2021/12/20 03:48:52;;;;;;;35.30;17.50;;;;;;;;;;4953556;28;20059;-69
2021/12/20 03:51:18;;;;;;;35.05;17.10;;;;;;;;;;4952315;29;20418;-68
2021/12/20 03:53:45;;;;;;;33.63;15.82;;;;;;;;;;4953098;28;20059;-68
2021/12/20 03:56:12;;;;;;;36.20;16.58;;;;;;;;;;4953253;28;20470;-69
2021/12/20 03:58:39;;;;;;;36.42;17.10;;;;;;;;;;4953231;28;20059;-68
2021/12/20 04:01:10;;;;;;;33.85;17.05;;;;;;;;;;4953337;28;20421;-69
2021/12/20 04:03:37;;;;;;;37.35;16.55;;;;;;;;;;4953255;28;20051;-69
2021/12/20 04:06:06;;;;;;;36.30;16.73;;;;;;;;;;4953189;28;20475;-69
2021/12/20 04:08:33;;;;;;;38.47;17.33;;;;;;;;;;4953337;28;20055;-68
2021/12/20 04:11:00;;;;;;;37.78;17.63;;;;;;;;;;4955854;29;20098;-69
2021/12/20 04:13:27;;;;;;;37.65;16.85;;;;;;;;;;4956537;28;20114;-68
2021/12/20 04:15:54;;;;;;;39.90;17.85;;;;;;;;;;4956935;28;20102;-69
2021/12/20 04:18:24;;;;;;;41.17;18.70;;;;;;;;;;4956790;29;20098;-69
2021/12/20 04:20:51;;;;;;;40.35;17.67;;;;;;;;;;4956541;28;20549;-68
2021/12/20 04:23:18;;;;;;;34.88;17.38;;;;;;;;;;4956641;28;20079;-69
2021/12/20 04:25:45;;;;;;;36.55;16.83;;;;;;;;;;4956634;29;20048;-69
2021/12/20 04:28:12;;;;;;;39.42;18.63;;;;;;;;;;4956748;28;20106;-69
2021/12/20 04:30:39;;;;;;;34.38;16.38;;;;;;;;;;4956672;28;20051;-69
2021/12/20 04:33:05;;;;;;;36.78;17.75;;;;;;;;;;4956594;29;20418;-69
2021/12/20 04:35:32;;;;;;;39.65;18.30;;;;;;;;;;4956641;28;20055;-68
2021/12/20 04:38:00;;;;;;;35.05;16.40;;;;;;;;;;4955534;29;20055;-69
2021/12/20 04:40:27;;;;;;;34.72;16.20;;;;;;;;;;4955452;29;20470;-69
2021/12/20 04:42:56;;;;;;;38.70;18.40;;;;;;;;;;4956382;28;20106;-68
2021/12/20 04:45:24;;;;;;;37.15;17.10;;;;;;;;;;4956627;28;20094;-69
2021/12/20 04:47:51;;;;;;;41.47;18.27;;;;;;;;;;4956302;28;20055;-69
2021/12/20 04:50:18;;;;;;;40.88;18.77;;;;;;;;;;4956346;28;20513;-69
2021/12/20 04:52:45;;;;;;;35.20;16.30;;;;;;;;;;4956256;28;20055;-69
2021/12/20 04:55:12;;;;;;;32.38;16.67;;;;;;;;;;4956341;28;20059;-68
2021/12/20 04:57:40;;;;;;;33.83;16.08;;;;;;;;;;4956071;28;20087;-69
2021/12/20 05:00:09;;;;;;;35.28;17.05;;;;;;;;;;4956287;28;20105;-69
2021/12/20 05:02:36;;;;;;;33.28;16.63;;;;;;;;;;4956105;28;20087;-69
2021/12/20 05:05:04;;;;;;;35.63;17.42;;;;;;;;;;4956346;28;20051;-69
2021/12/20 05:07:30;;;;;;;34.15;16.80;;;;;;;;;;4955825;28;20047;-69
2021/12/20 05:10:01;;;;;;;37.03;17.23;;;;;;;;;;4956203;28;20055;-68
2021/12/20 05:12:27;;;;;;;41.90;18.77;;;;;;;;;;4956063;28;20103;-69
2021/12/20 05:14:54;;;;;;;33.38;17.95;;;;;;;;;;4955900;28;20110;-69
2021/12/20 05:17:21;;;;;;;32.45;16.42;;;;;;;;;;4956332;29;20051;-68
2021/12/20 05:19:47;;;;;;;36.63;17.73;;;;;;;;;;4974313;28;20059;-69
2021/12/20 05:22:14;;;;;;;36.72;18.30;;;;;;;;;;4974651;29;20063;-69
2021/12/20 05:24:41;;;;;;;34.95;16.80;;;;;;;;;;4975855;28;20079;-68
2021/12/20 05:27:07;;;;;;;35.10;16.20;;;;;;;;;;4965729;29;20071;-69
2021/12/20 05:29:34;;;;;;;35.58;17.50;;;;;;;;;;4961269;28;20367;-70
2021/12/20 05:32:04;;;;;;;34.22;18.85;;;;;;;;;;4965614;28;20058;-69
2021/12/20 05:34:30;;;;;;;38.58;17.67;;;;;;;;;;4965235;28;20047;-69
2021/12/20 05:36:57;;;;;;;35.70;18.55;;;;;;;;;;4971387;29;20043;-69
2021/12/20 05:39:23;;;;;;;34.53;16.55;;;;;;;;;;4970025;28;20110;-69
2021/12/20 05:41:50;;;;;;;38.35;17.20;;;;;;;;;;4963928;29;20047;-69
2021/12/20 05:44:16;;;;;;;37.50;17.75;;;;;;;;;;4968676;29;20051;-70
2021/12/20 05:46:43;;;;;;;30.73;15.77;;;;;;;;;;4973421;28;20083;-69
2021/12/20 05:49:10;;;;;;;37.65;17.05;;;;;;;;;;4971538;28;20043;-69
2021/12/20 05:51:36;;;;;;;32.42;15.70;;;;;;;;;;4955856;29;20499;-68
2021/12/20 05:54:03;;;;;;;36.25;17.48;;;;;;;;;;4954909;29;20062;-68
2021/12/20 05:56:30;;;;;;;33.65;16.23;;;;;;;;;;4954534;29;20039;-68
2021/12/20 05:58:56;;;;;;;34.70;16.60;;;;;;;;;;4954623;28;20047;-68
2021/12/20 06:01:23;;;;;;;34.10;17.17;;;;;;;;;;4954546;29;20098;-68
2021/12/20 06:03:50;;;;;;;31.50;16.45;;;;;;;;;;4954417;29;20487;-68
2021/12/20 06:06:17;;;;;;;39.97;16.80;;;;;;;;;;4954319;29;20521;-68
2021/12/20 06:08:43;;;;;;;37.67;17.60;;;;;;;;;;4954423;28;20465;-68
2021/12/20 06:11:10;;;;;;;35.25;15.98;;;;;;;;;;4954365;29;20490;-68
2021/12/20 06:13:36;;;;;;;36.80;19.38;;;;;;;;;;4954591;29;20083;-73
2021/12/20 06:16:03;;;;;;;29.42;14.90;;;;;;;;;;4954294;28;20047;-68
2021/12/20 06:18:30;;;;;;;38.13;17.15;;;;;;;;;;4952495;28;20094;-68
2021/12/20 06:20:56;;;;;;;37.25;16.83;;;;;;;;;;4952735;28;20110;-67
2021/12/20 06:23:23;;;;;;;41.25;19.05;;;;;;;;;;4953018;28;20081;-67
2021/12/20 06:25:50;;;;;;;38.88;18.52;;;;;;;;;;4952451;29;20054;-68
2021/12/20 06:28:16;;;;;;;37.55;18.42;;;;;;;;;;4952191;28;20063;-66
2021/12/20 06:30:43;;;;;;;42.33;18.65;;;;;;;;;;4952156;29;20048;-66
2021/12/20 06:33:09;;;;;;;33.60;16.40;;;;;;;;;;4951604;28;20055;-67
2021/12/20 06:35:36;;;;;;;35.47;17.35;;;;;;;;;;4952426;28;20059;-66
2021/12/20 06:38:05;;;;;;;33.50;17.42;;;;;;;;;;4952127;28;20487;-66
2021/12/20 06:40:34;;;;;;;34.67;17.40;;;;;;;;;;4952236;28;20110;-66
2021/12/20 06:43:01;;;;;;;34.63;16.58;;;;;;;;;;4966794;28;20059;-66
2021/12/20 06:45:30;;;;;;;35.85;16.65;;;;;;;;;;4951749;28;20402;-67
2021/12/20 06:47:57;;;;;;;36.88;17.02;;;;;;;;;;4951950;28;20082;-66
2021/12/20 06:50:24;;;;;;;35.75;16.50;;;;;;;;;;4952039;28;20062;-66
2021/12/20 06:52:51;;;;;;;32.47;15.50;;;;;;;;;;4951959;28;20470;-66
2021/12/20 06:55:17;;;;;;;37.60;16.40;;;;;;;;;;4952269;28;20055;-68
2021/12/20 06:57:44;;;;;;;35.72;16.48;;;;;;;;;;4951046;28;20051;-68
2021/12/20 07:00:11;;;;;;;34.75;16.23;;;;;;;;;;4951974;28;20082;-67
2021/12/20 07:02:37;;;;;;;36.40;17.35;;;;;;;;;;4951963;29;20481;-68
2021/12/20 07:05:05;;;;;;;35.05;15.70;;;;;;;;;;4952041;29;20421;-67
2021/12/20 07:07:34;;;;;;;33.38;15.98;;;;;;;;;;4950626;28;20110;-67
2021/12/20 07:10:05;;;;;;;34.60;16.67;;;;;;;;;;4951382;29;20411;-66
2021/12/20 07:12:35;;;;;;;31.33;14.15;;;;;;;;;;4951490;28;20114;-67
2021/12/20 07:15:03;;;;;;;34.75;16.55;;;;;;;;;;4951649;28;20506;-67
2021/12/20 07:17:30;;;;;;;32.47;16.80;;;;;;;;;;4951493;28;20047;-67
2021/12/20 07:20:00;;;;;;;33.90;16.48;;;;;;;;;;4951697;28;20047;-66
2021/12/20 07:22:27;;;;;;;37.90;16.63;;;;;;;;;;4951525;28;20411;-67
2021/12/20 07:24:53;;;;;;;36.25;16.83;;;;;;;;;;4940686;28;20056;-67
2021/12/20 07:27:20;;;;;;;35.85;15.57;;;;;;;;;;4956171;28;20478;-68
2021/12/20 07:29:47;;;;;;;36.00;16.27;;;;;;;;;;4942910;28;20106;-68
2021/12/20 07:32:13;;;;;;;38.08;16.55;;;;;;;;;;4960996;28;20097;-68
2021/12/20 07:34:40;;;;;;;35.40;17.77;;;;;;;;;;4956078;28;20316;-68
2021/12/20 07:37:07;;;;;;;34.45;17.52;;;;;;;;;;4958136;28;20055;-66
2021/12/20 07:39:34;;;;;;;34.00;17.20;;;;;;;;;;4956186;28;20051;-67
2021/12/20 07:42:01;;;;;;;33.60;16.48;;;;;;;;;;4957978;28;20093;-70
2021/12/20 07:44:27;;;;;;;37.20;16.98;;;;;;;;;;4957609;28;20051;-67
2021/12/20 07:46:54;;;;;;;33.63;16.88;;;;;;;;;;4962329;28;20042;-67
2021/12/20 07:49:23;;;;;;;32.28;16.80;;;;;;;;;;4963548;28;20051;-65
2021/12/20 07:51:52;;;;;;;36.40;16.40;;;;;;;;;;4963146;28;20460;-66
2021/12/20 07:54:19;;;;;;;35.30;17.92;;;;;;;;;;4961282;28;20047;-67
2021/12/20 07:56:45;;;;;;;35.03;16.92;;;;;;;;;;4960611;28;20043;-67
2021/12/20 07:59:12;;;;;;;38.08;18.50;;;;;;;;;;4944277;28;20362;-66
2021/12/20 08:01:39;;;;;;;34.35;17.58;;;;;;;;;;4960108;28;20047;-67
2021/12/20 08:04:07;;;;;;;38.13;18.10;;;;;;;;;;4963197;28;20094;-66
2021/12/20 08:06:34;;;;;;;38.33;17.35;;;;;;;;;;4959862;28;20058;-66
2021/12/20 08:09:01;;;;;;;31.05;16.20;;;;;;;;;;4962335;28;20063;-65
2021/12/20 08:11:28;;;;;;;32.90;16.42;;;;;;;;;;4962563;28;20054;-66
2021/12/20 08:13:55;;;;;;;31.13;16.48;;;;;;;;;;4961846;28;20109;-65
2021/12/20 08:16:22;;;;;;;31.55;16.17;;;;;;;;;;4961879;28;20510;-66
2021/12/20 08:18:48;;;;;;;30.42;14.75;;;;;;;;;;4963552;28;20047;-66
2021/12/20 08:21:15;;;;;;;29.85;16.10;;;;;;;;;;4964955;28;20047;-66
2021/12/20 08:23:43;;;;;;;31.10;15.95;;;;;;;;;;4961099;28;20062;-65
2021/12/20 08:26:10;;;;;;;28.58;15.15;;;;;;;;;;4962281;28;20473;-66
2021/12/20 08:28:37;;;;;;;34.50;16.45;;;;;;;;;;4962427;28;20101;-66
2021/12/20 08:31:04;;;;;;;36.78;17.02;;;;;;;;;;4965056;28;20364;-67
2021/12/20 08:33:32;;;;;;;32.45;16.17;;;;;;;;;;4961513;28;20449;-66
2021/12/20 08:36:00;;;;;;;33.63;16.80;;;;;;;;;;4965095;28;20503;-68
2021/12/20 08:38:27;;;;;;;33.97;16.40;;;;;;;;;;4961138;28;20110;-68
2021/12/20 08:40:59;;;;;;;33.10;15.98;;;;;;;;;;4966519;28;20398;-68
2021/12/20 08:43:27;;;;;;;33.13;15.73;;;;;;;;;;4961459;28;20210;-67
2021/12/20 08:45:54;;;;;;;33.22;16.05;;;;;;;;;;4962992;28;20101;-67
2021/12/20 08:48:20;;;;;;;30.13;16.02;;;;;;;;;;4960981;28;20043;-68
2021/12/20 08:50:47;;;;;;;27.95;14.50;;;;;;;;;;4958056;28;20089;-70
2021/12/20 08:53:15;;;;;;;26.42;14.68;;;;;;;;;;4961384;28;20110;-69
2021/12/20 08:55:42;;;;;;;29.80;14.73;;;;;;;;;;4945295;28;20051;-73
2021/12/20 08:58:12;;;;;;;29.23;15.20;;;;;;;;;;4961974;28;20047;-72
2021/12/20 09:00:40;;;;;;;27.50;15.60;;;;;;;;;;4962409;28;20078;-76
2021/12/20 09:03:06;;;;;;;29.40;15.10;;;;;;;;;;4963411;28;20059;-74
2021/12/20 09:05:34;;;;;;;25.70;14.73;;;;;;;;;;4943683;28;20083;-74
2021/12/20 09:08:03;;;;;;;30.27;15.48;;;;;;;;;;4965941;28;20573;-73
2021/12/20 09:10:32;;;;;;;29.77;15.27;;;;;;;;;;4947182;28;20403;-73
2021/12/20 09:13:00;;;;;;;27.08;15.80;;;;;;;;;;4963031;28;20111;-75
2021/12/20 09:15:28;;;;;;;34.22;16.65;;;;;;;;;;4950572;28;20133;-75
2021/12/20 09:17:56;;;;;;;28.23;14.15;;;;;;;;;;4945420;28;20058;-71
2021/12/20 09:20:24;;;;;;;27.45;14.82;;;;;;;;;;4967985;28;20051;-70
2021/12/20 09:22:58;;;;;;;28.70;15.57;;;;;;;;;;4944815;28;20098;-70
2021/12/20 09:25:26;;;;;;;27.35;14.48;;;;;;;;;;4963339;28;20047;-69
2021/12/20 09:27:55;;;;;;;27.15;14.80;;;;;;;;;;4963024;28;20039;-71
2021/12/20 09:30:24;;;;;;;31.10;16.00;;;;;;;;;;4962000;28;20050;-65
2021/12/20 09:32:50;;;;;;;29.58;15.60;;;;;;;;;;4960402;28;20051;-66
2021/12/20 09:35:17;;;;;;;26.15;15.13;;;;;;;;;;4961556;28;20468;-67
2021/12/20 09:37:49;;;;;;;31.05;16.30;;;;;;;;;;4960184;28;20055;-69
2021/12/20 09:40:32;;;;;;;31.98;15.98;;;;;;;;;;4965279;28;20051;-71
2021/12/20 09:43:02;;;;;;;29.70;15.80;;;;;;;;;;4945120;28;20082;-70
2021/12/20 09:45:29;;;;;;;27.98;14.75;;;;;;;;;;4961303;28;20062;-70
2021/12/20 09:47:56;;;;;;;29.25;15.73;;;;;;;;;;4964273;28;20130;-70
2021/12/20 09:50:25;;;;;;;31.90;16.25;;;;;;;;;;4962350;28;20054;-72
2021/12/20 09:52:51;;;;;;;33.25;17.05;;;;;;;;;;4960241;28;20047;-73
2021/12/20 09:55:19;;;;;;;28.70;15.73;;;;;;;;;;4966929;28;20047;-72
2021/12/20 09:57:47;;;;;;;28.58;14.90;;;;;;;;;;4950703;28;20561;-72
2021/12/20 10:00:17;;;;;;;31.70;16.50;;;;;;;;;;4965109;28;20098;-71
2021/12/20 10:02:46;;;;;;;29.48;15.57;;;;;;;;;;4968950;28;20046;-72
2021/12/20 10:05:14;;;;;;;30.90;16.52;;;;;;;;;;4964537;28;20055;-70
2021/12/20 10:07:41;;;;;;;33.90;17.48;;;;;;;;;;4968224;28;20051;-71
2021/12/20 10:10:10;;;;;;;31.38;17.30;;;;;;;;;;4967789;28;20051;-70
2021/12/20 10:12:48;;;;;;;32.75;16.27;;;;;;;;;;4965262;28;20098;-69
2021/12/20 10:15:15;;;;;;;33.42;17.50;;;;;;;;;;4964659;28;20105;-69
2021/12/20 10:17:58;;;;;;;32.63;15.23;;;;;;;;;;4965227;28;20051;-70
2021/12/20 10:20:27;;;;;;;32.40;16.95;;;;;;;;;;4962067;28;20059;-70
2021/12/20 10:23:08;;;;;;;30.80;16.15;;;;;;;;;;4945849;28;20046;-69
2021/12/20 10:25:36;;;;;;;31.88;16.55;;;;;;;;;;4961345;28;20102;-69
2021/12/20 10:28:11;;;;;;;27.20;16.30;;;;;;;;;;4963077;28;20313;-66
2021/12/20 10:30:41;;;;;;;30.50;15.77;;;;;;;;;;4960983;28;20059;-66
2021/12/20 10:33:10;;;;;;;34.42;16.45;;;;;;;;;;4963332;28;20468;-67
2021/12/20 10:35:40;;;;;;;32.17;16.63;;;;;;;;;;4959258;28;20494;-68
2021/12/20 10:38:22;;;;;;;26.27;14.45;;;;;;;;;;4961961;28;20050;-68
2021/12/20 10:40:51;;;;;;;30.48;15.63;;;;;;;;;;4962428;28;20175;-66
2021/12/20 10:43:27;;;;;;;29.65;14.85;;;;;;;;;;4961780;28;20126;-65
2021/12/20 10:45:54;;;;;;;26.27;14.63;;;;;;;;;;4960258;28;20043;-69
2021/12/20 10:48:42;;;;;;;29.90;14.48;;;;;;;;;;4962060;28;20038;-69
2021/12/20 10:51:18;;;;;;;25.73;13.55;;;;;;;;;;4960640;28;20081;-72
2021/12/20 10:53:46;;;;;;;25.17;14.30;;;;;;;;;;4962058;28;20058;-72
2021/12/20 10:56:13;;;;;;;25.48;13.70;;;;;;;;;;4962670;28;20395;-71
2021/12/20 10:58:52;;;;;;;25.10;13.70;;;;;;;;;;4959127;28;20047;-70
2021/12/20 11:04:15;;;;;;;29.73;14.90;;;;;;;;;;4963095;28;20050;-66
2021/12/20 11:09:37;;;;;;;24.80;12.23;;;;;;;;;;4963197;28;20113;-67
2021/12/20 11:12:15;;;;;;;24.55;11.63;;;;;;;;;;4967416;28;20105;-64
2021/12/20 11:14:46;;;;;;;22.60;11.23;;;;;;;;;;4966118;28;20411;-67
2021/12/20 11:17:16;;;;;;;30.40;12.93;;;;;;;;;;4959163;28;20051;-67
2021/12/20 11:19:53;;;;;;;26.60;11.35;;;;;;;;;;4965581;28;20101;-68
2021/12/20 11:22:27;;;;;;;24.42;11.40;;;;;;;;;;4960055;28;20051;-64
2021/12/20 11:24:56;;;;;;;24.75;12.15;;;;;;;;;;4958626;28;20434;-64
2021/12/20 11:27:32;;;;;;;25.88;12.75;;;;;;;;;;4963268;28;20098;-65
2021/12/20 11:30:16;;;;;;;25.90;12.77;;;;;;;;;;4959277;28;20054;-69
2021/12/20 11:32:45;;;;;;;21.52;11.98;;;;;;;;;;4959964;28;20063;-72
2021/12/20 11:35:16;;;;;;;23.98;12.50;;;;;;;;;;4958673;28;20059;-70
2021/12/20 11:37:44;;;;;;;24.30;11.98;;;;;;;;;;4962727;28;20380;-71
2021/12/20 11:40:12;;;;;;;18.92;9.63;;;;;;;;;;4958107;28;20055;-70
2021/12/20 11:42:39;;;;;;;20.95;9.70;;;;;;;;;;4966082;28;20239;-68
2021/12/20 11:45:08;;;;;;;17.77;9.13;;;;;;;;;;4958362;28;20129;-68
2021/12/20 11:47:46;;;;;;;21.30;11.40;;;;;;;;;;4964650;28;20110;-69
2021/12/20 11:50:15;;;;;;;18.73;9.20;;;;;;;;;;4960035;28;20062;-71
2021/12/20 11:52:44;;;;;;;16.67;9.52;;;;;;;;;;4964762;28;20498;-69
2021/12/20 11:55:30;;;;;;;17.67;9.68;;;;;;;;;;4960695;28;20050;-70
2021/12/20 11:58:16;;;;;;;18.60;10.32;;;;;;;;;;4945576;28;20134;-70
2021/12/20 12:00:48;;;;;;;27.50;14.10;;;;;;;;;;4959799;28;20051;-67
2021/12/20 12:03:14;;;;;;;22.38;11.27;;;;;;;;;;4961458;28;20488;-67
2021/12/20 12:05:53;;;;;;;21.48;9.57;;;;;;;;;;4960487;28;20047;-71
2021/12/20 12:08:23;;;;;;;19.73;10.55;;;;;;;;;;4960439;28;20043;-67
2021/12/20 12:11:08;;;;;;;14.70;8.10;;;;;;;;;;4961460;28;20494;-68
2021/12/20 12:13:49;;;;;;;16.17;8.93;;;;;;;;;;4958057;28;20051;-67
2021/12/20 12:16:30;;;;;;;15.35;9.00;;;;;;;;;;4958049;28;20395;-70
2021/12/20 12:18:58;;;;;;;18.15;10.20;;;;;;;;;;4963709;28;20505;-70
2021/12/20 12:21:32;;;;;;;17.35;8.60;;;;;;;;;;4960724;28;20078;-71
2021/12/20 12:24:39;;;;;;;17.92;8.80;;;;;;;;;;4961891;28;20043;-71
2021/12/20 12:27:31;;;;;;;14.57;8.18;;;;;;;;;;4940448;28;20058;-71
2021/12/20 12:30:16;;;;;;;14.63;8.55;;;;;;;;;;4959525;28;20109;-71
2021/12/20 12:32:48;;;;;;;12.45;6.85;;;;;;;;;;4961606;28;20529;-71
2021/12/20 12:35:49;;;;;;;12.50;6.75;;;;;;;;;;4966243;28;20063;-68
2021/12/20 12:38:33;;;;;;;11.95;6.85;;;;;;;;;;4947429;28;20102;-68
2021/12/20 12:41:07;;;;;;;13.73;6.18;;;;;;;;;;4964382;28;20050;-69
2021/12/20 12:43:49;;;;;;;12.18;6.43;;;;;;;;;;4963299;28;20058;-67
2021/12/20 12:46:27;;;;;;;13.88;7.03;;;;;;;;;;4961166;28;20108;-68
2021/12/20 12:48:54;;;;;;;13.48;6.97;;;;;;;;;;4933077;28;20039;-69
2021/12/20 12:51:20;;;;;;;16.13;7.30;;;;;;;;;;4965708;28;20465;-70
2021/12/20 12:53:49;;;;;;;11.93;7.10;;;;;;;;;;4963129;28;20506;-71
2021/12/20 12:56:27;;;;;;;12.00;7.32;;;;;;;;;;4950906;28;20089;-68
2021/12/20 12:59:12;;;;;;;15.13;7.38;;;;;;;;;;4962759;28;20084;-69
2021/12/20 13:01:41;;;;;;;10.95;5.85;;;;;;;;;;4966925;28;20051;-70
2021/12/20 13:04:07;;;;;;;14.65;6.72;;;;;;;;;;4949733;29;20503;-69
2021/12/20 13:06:34;;;;;;;10.82;6.57;;;;;;;;;;4973473;28;20055;-69
2021/12/20 13:09:01;;;;;;;20.65;6.28;;;;;;;;;;4963607;28;20047;-69
2021/12/20 13:11:30;;;;;;;11.25;6.25;;;;;;;;;;4967503;28;20050;-68
2021/12/20 13:14:09;;;;;;;13.52;7.10;;;;;;;;;;4961410;28;20526;-69
2021/12/20 13:16:38;;;;;;;11.48;6.07;;;;;;;;;;4967016;28;20422;-72
2021/12/20 13:19:06;;;;;;;14.48;6.07;;;;;;;;;;4973245;28;20050;-72
2021/12/20 13:21:49;;;;;;;13.02;6.15;;;;;;;;;;4961973;28;20253;-66
2021/12/20 13:24:17;;;;;;;11.73;5.72;;;;;;;;;;4949400;28;20426;-65
2021/12/20 13:26:43;;;;;;;8.57;5.18;;;;;;;;;;4960736;28;20082;-66
2021/12/20 13:29:17;;;;;;;11.63;5.18;;;;;;;;;;4959596;28;20055;-64
2021/12/20 13:31:44;;;;;;;9.95;5.13;;;;;;;;;;4960774;28;20051;-66
2021/12/20 13:34:14;;;;;;;9.73;4.95;;;;;;;;;;4961575;28;20051;-67
2021/12/20 13:36:50;;;;;;;10.02;5.47;;;;;;;;;;4961252;28;20491;-66
2021/12/20 13:39:16;;;;;;;11.20;5.13;;;;;;;;;;4959910;28;20391;-66
2021/12/20 13:41:43;;;;;;;11.88;5.65;;;;;;;;;;4961086;28;20054;-64
2021/12/20 13:44:19;;;;;;;12.82;5.47;;;;;;;;;;4959994;28;20511;-65
2021/12/20 13:46:49;;;;;;;19.00;6.60;;;;;;;;;;4964293;28;20043;-62
2021/12/20 13:49:22;;;;;;;15.15;6.15;;;;;;;;;;4961635;28;20050;-65
2021/12/20 13:52:06;;;;;;;13.13;5.05;;;;;;;;;;4959628;28;20107;-65
2021/12/20 13:54:33;;;;;;;14.13;5.93;;;;;;;;;;4960619;28;20043;-66
2021/12/20 13:57:02;;;;;;;14.23;6.15;;;;;;;;;;4962172;28;20312;-66
2021/12/20 13:59:29;;;;;;;13.63;5.97;;;;;;;;;;4959415;28;20581;-66
2021/12/20 14:01:56;;;;;;;13.65;5.40;;;;;;;;;;4964092;28;20055;-66
2021/12/20 14:04:44;;;;;;;11.32;5.18;;;;;;;;;;4942282;28;20055;-66
2021/12/20 14:07:26;;;;;;;11.35;5.00;;;;;;;;;;4962708;28;20051;-66
2021/12/20 14:10:04;;;;;;;9.43;5.30;;;;;;;;;;4962809;28;20047;-66
2021/12/20 14:12:45;;;;;;;11.27;5.43;;;;;;;;;;4961136;28;20129;-65
2021/12/20 14:15:20;;;;;;;10.02;4.90;;;;;;;;;;4960554;28;20549;-66
2021/12/20 14:17:54;;;;;;;13.43;5.47;;;;;;;;;;4962663;28;20058;-66
2021/12/20 14:20:39;;;;;;;;;;;;;;;;;;4959258;28;20196;-66
2021/12/20 14:23:08;;;;;;;11.38;4.97;;;;;;;;;;4960782;28;19930;-67
2021/12/20 14:25:40;;;;;;;10.48;4.78;;;;;;;;;;4962979;28;20079;-65
2021/12/20 14:28:12;;;;;;;10.25;5.05;;;;;;;;;;4963191;28;20067;-65
2021/12/20 14:30:50;;;;;;;14.55;4.63;;;;;;;;;;4959864;28;20050;-66
2021/12/20 14:33:25;;;;;;;12.50;4.30;;;;;;;;;;4962347;28;20130;-66
2021/12/20 14:36:15;;;;;;;12.75;4.13;;;;;;;;;;4962064;28;20070;-66
2021/12/20 14:38:49;;;;;;;12.73;4.88;;;;;;;;;;4963180;28;20047;-69
2021/12/20 14:41:33;;;;;;;11.60;4.57;;;;;;;;;;4959746;28;20055;-65
2021/12/20 14:44:07;;;;;;;12.27;5.45;;;;;;;;;;4963111;28;20090;-66
2021/12/20 14:46:52;;;;;;;11.30;4.65;;;;;;;;;;4961747;28;20455;-66
2021/12/20 14:49:22;;;;;;;8.98;4.05;;;;;;;;;;4956152;28;20039;-69
2021/12/20 14:51:50;;;;;;;12.32;4.80;;;;;;;;;;4967406;28;20042;-68
2021/12/20 14:54:23;;;;;;;10.82;5.40;;;;;;;;;;4961011;28;20105;-71